createdAt,value
2022-07-29T00:02:27.767Z,18.20
2022-07-29T00:04:54.821Z,18.20
2022-07-29T00:07:21.622Z,18.40
2022-07-29T00:09:51.620Z,18.10
2022-07-29T00:12:25.101Z,18.10
2022-07-29T00:14:56.233Z,18.00
2022-07-29T00:17:24.265Z,17.90
2022-07-29T00:19:51.092Z,17.80
2022-07-29T00:22:17.922Z,18.00
2022-07-29T00:24:44.639Z,17.80
2022-07-29T00:27:11.368Z,17.70
2022-07-29T00:29:39.350Z,17.80
2022-07-29T00:32:06.545Z,17.80
2022-07-29T00:34:51.954Z,17.50
2022-07-29T00:37:18.714Z,17.50
2022-07-29T00:39:45.451Z,17.40
2022-07-29T00:42:12.211Z,17.30
2022-07-29T00:44:42.888Z,17.30
2022-07-29T00:47:11.929Z,17.30
2022-07-29T00:49:40.885Z,17.20
2022-07-29T00:52:09.407Z,17.10
2022-07-29T00:54:44.627Z,17.10
2022-07-29T00:57:12.090Z,17.00
2022-07-29T00:59:38.837Z,17.00
2022-07-29T01:02:05.843Z,16.90
2022-07-29T01:04:33.297Z,16.90
2022-07-29T01:07:04.166Z,16.90
2022-07-29T01:09:42.775Z,16.80
2022-07-29T01:12:20.047Z,16.80
2022-07-29T01:14:48.569Z,16.80
2022-07-29T01:17:26.425Z,16.90
2022-07-29T01:20:14.820Z,16.70
2022-07-29T01:23:13.809Z,16.60
2022-07-29T01:26:03.385Z,16.60
2022-07-29T01:28:44.743Z,16.50
2022-07-29T01:31:24.353Z,16.50
2022-07-29T01:34:01.859Z,16.40
2022-07-29T01:36:44.484Z,16.30
2022-07-29T01:39:30.982Z,16.40
2022-07-29T01:42:06.433Z,16.20
2022-07-29T01:44:38.607Z,16.20
2022-07-29T01:47:20.178Z,16.20
2022-07-29T01:49:55.597Z,16.10
2022-07-29T01:52:38.858Z,16.10
2022-07-29T01:55:17.409Z,16.10
2022-07-29T01:57:47.685Z,16.00
2022-07-29T02:00:15.788Z,16.20
2022-07-29T02:02:45.159Z,16.00
2022-07-29T02:05:14.985Z,16.00
2022-07-29T02:07:44.072Z,15.90
2022-07-29T02:10:13.020Z,15.90
2022-07-29T02:12:41.513Z,15.90
2022-07-29T02:15:10.855Z,15.80
2022-07-29T02:17:46.135Z,15.70
2022-07-29T02:20:13.630Z,15.90
2022-07-29T02:22:41.874Z,15.70
2022-07-29T02:25:13.931Z,15.70
2022-07-29T02:27:42.533Z,15.70
2022-07-29T02:30:11.091Z,15.50
2022-07-29T02:32:40.622Z,15.70
2022-07-29T02:35:09.553Z,15.60
2022-07-29T02:37:38.396Z,15.70
2022-07-29T02:40:06.902Z,15.60
2022-07-29T02:42:36.979Z,15.60
2022-07-29T02:45:04.495Z,15.50
2022-07-29T02:47:48.514Z,15.50
2022-07-29T02:50:30.084Z,15.50
2022-07-29T02:53:18.824Z,15.50
2022-07-29T02:55:51.064Z,15.50
2022-07-29T02:58:29.537Z,15.50
2022-07-29T03:01:16.829Z,15.40
2022-07-29T03:03:49.623Z,15.40
2022-07-29T03:06:30.945Z,15.40
2022-07-29T03:09:09.129Z,15.30
2022-07-29T03:11:49.119Z,15.30
2022-07-29T03:14:20.389Z,15.40
2022-07-29T03:16:48.605Z,15.30
2022-07-29T03:19:16.003Z,15.20
2022-07-29T03:21:42.745Z,15.20
2022-07-29T03:24:12.156Z,15.20
2022-07-29T03:26:39.017Z,15.20
2022-07-29T03:29:05.945Z,15.10
2022-07-29T03:31:33.792Z,15.10
2022-07-29T03:34:01.041Z,15.10
2022-07-29T03:36:27.779Z,15.10
2022-07-29T03:38:55.606Z,15.10
2022-07-29T03:41:23.709Z,15.10
2022-07-29T03:43:52.801Z,15.10
2022-07-29T03:46:23.587Z,15.10
2022-07-29T03:48:53.732Z,15.10
2022-07-29T03:51:33.723Z,15.10
2022-07-29T03:54:07.704Z,15.00
2022-07-29T03:56:40.859Z,15.00
2022-07-29T03:59:08.548Z,15.10
2022-07-29T04:01:36.246Z,15.30
2022-07-29T04:04:05.587Z,15.20
2022-07-29T04:06:42.763Z,15.20
2022-07-29T04:09:10.582Z,15.10
2022-07-29T04:12:02.433Z,15.20
2022-07-29T04:14:25.747Z,15.30
2022-07-29T04:16:52.511Z,15.30
2022-07-29T04:19:19.208Z,15.20
2022-07-29T04:21:46.216Z,15.10
2022-07-29T04:24:13.289Z,15.10
2022-07-29T04:26:40.220Z,15.10
2022-07-29T04:29:06.938Z,15.10
2022-07-29T04:31:33.721Z,15.20
2022-07-29T04:34:00.488Z,15.10
2022-07-29T04:36:29.551Z,15.10
2022-07-29T04:38:56.885Z,15.10
2022-07-29T04:41:23.716Z,15.20
2022-07-29T04:44:01.880Z,15.20
2022-07-29T04:46:28.953Z,15.20
2022-07-29T04:48:55.973Z,15.20
2022-07-29T04:51:22.872Z,15.20
2022-07-29T04:53:49.747Z,15.40
2022-07-29T04:56:16.477Z,15.30
2022-07-29T04:58:43.501Z,15.40
2022-07-29T05:01:10.280Z,15.40
2022-07-29T05:03:37.056Z,15.50
2022-07-29T05:06:04.060Z,15.60
2022-07-29T05:08:30.740Z,15.80
2022-07-29T05:10:57.461Z,16.00
2022-07-29T05:13:24.499Z,16.30
2022-07-29T05:15:51.363Z,17.00
2022-07-29T05:18:18.103Z,17.70
2022-07-29T05:20:44.842Z,18.00
2022-07-29T05:23:13.800Z,18.00
2022-07-29T05:25:43.791Z,17.60
2022-07-29T05:28:12.307Z,17.90
2022-07-29T05:30:39.328Z,18.00
2022-07-29T05:33:06.107Z,18.40
2022-07-29T05:35:32.950Z,18.50
2022-07-29T05:37:59.624Z,18.90
2022-07-29T05:40:26.323Z,19.00
2022-07-29T05:42:52.979Z,18.90
2022-07-29T05:45:19.738Z,18.50
2022-07-29T05:47:46.533Z,18.50
2022-07-29T05:50:13.459Z,18.70
2022-07-29T05:52:40.206Z,19.70
2022-07-29T05:55:07.186Z,20.60
2022-07-29T05:57:33.974Z,21.50
2022-07-29T06:00:00.688Z,22.50
2022-07-29T06:02:27.414Z,22.80
2022-07-29T06:04:54.758Z,24.00
2022-07-29T06:07:21.653Z,23.90
2022-07-29T06:09:48.363Z,23.40
2022-07-29T06:12:15.594Z,23.40
2022-07-29T06:14:42.412Z,23.60
2022-07-29T06:17:09.375Z,23.30
2022-07-29T06:19:37.451Z,22.60
2022-07-29T06:22:04.712Z,24.60
2022-07-29T06:24:31.781Z,23.90
2022-07-29T06:26:58.543Z,22.50
2022-07-29T06:29:25.399Z,23.80
2022-07-29T06:31:52.249Z,23.10
2022-07-29T06:34:20.236Z,22.90
2022-07-29T06:36:47.756Z,21.90
2022-07-29T06:39:15.613Z,20.70
2022-07-29T06:41:42.567Z,20.20
2022-07-29T06:44:09.791Z,19.70
2022-07-29T06:46:37.526Z,19.40
2022-07-29T06:49:04.921Z,19.50
2022-07-29T06:51:31.716Z,21.40
2022-07-29T06:54:02.033Z,22.30
2022-07-29T06:56:38.648Z,23.40
2022-07-29T06:59:08.626Z,23.00
2022-07-29T07:01:37.476Z,25.10
2022-07-29T07:04:17.762Z,26.70
2022-07-29T07:07:19.914Z,27.30
2022-07-29T07:09:58.508Z,26.00
2022-07-29T07:12:28.435Z,22.90
2022-07-29T07:15:38.924Z,21.80
2022-07-29T07:21:22.057Z,22.90
2022-07-29T07:23:49.270Z,22.40
2022-07-29T07:26:16.186Z,22.10
2022-07-29T07:28:43.071Z,21.20
2022-07-29T07:31:10.532Z,21.10
2022-07-29T07:33:37.347Z,20.90
2022-07-29T07:36:04.473Z,21.10
2022-07-29T07:38:31.269Z,22.10
2022-07-29T07:40:58.084Z,22.60
2022-07-29T07:43:24.802Z,22.40
2022-07-29T07:45:51.507Z,22.40
2022-07-29T07:48:18.225Z,22.20
2022-07-29T07:50:45.255Z,22.70
2022-07-29T07:53:12.114Z,21.70
2022-07-29T07:58:30.221Z,21.70
2022-07-29T08:00:56.975Z,22.10
2022-07-29T08:03:23.762Z,21.90
2022-07-29T08:05:52.666Z,21.90
2022-07-29T08:08:19.581Z,22.00
2022-07-29T08:10:56.929Z,21.90
2022-07-29T08:13:26.478Z,22.40
2022-07-29T08:15:59.241Z,22.60
2022-07-29T08:18:30.404Z,22.50
2022-07-29T08:20:57.734Z,22.30
2022-07-29T08:23:25.245Z,22.10
2022-07-29T08:25:52.301Z,22.60
2022-07-29T08:28:21.638Z,23.00
2022-07-29T08:30:52.859Z,22.80
2022-07-29T08:33:19.570Z,23.10
2022-07-29T08:35:46.716Z,22.90
2022-07-29T08:38:13.466Z,23.20
2022-07-29T08:40:40.654Z,23.10
2022-07-29T08:43:09.254Z,23.20
2022-07-29T08:45:47.330Z,23.70
2022-07-29T08:48:16.837Z,24.00
2022-07-29T08:50:46.304Z,23.80
2022-07-29T08:53:16.742Z,23.70
2022-07-29T08:55:51.100Z,24.00
2022-07-29T08:58:18.430Z,23.80
2022-07-29T09:00:57.944Z,24.00
2022-07-29T09:03:28.362Z,24.10
2022-07-29T09:05:55.388Z,23.80
2022-07-29T09:08:22.519Z,23.40
2022-07-29T09:10:50.250Z,23.80
2022-07-29T09:13:17.091Z,24.40
2022-07-29T09:15:44.357Z,24.90
2022-07-29T10:41:53.304Z,26.60
2022-07-29T10:44:24.659Z,26.80
2022-07-29T10:46:52.881Z,26.80
2022-07-29T10:49:32.406Z,27.30
2022-07-29T10:52:06.449Z,26.70
2022-07-29T10:54:48.549Z,26.60
2022-07-29T10:57:17.029Z,26.70
2022-07-29T10:59:46.793Z,26.40
2022-07-29T11:02:42.006Z,26.70
2022-07-29T11:05:20.143Z,27.00
2022-07-29T11:08:20.181Z,26.80
2022-07-29T11:10:49.109Z,27.10
2022-07-29T11:13:57.017Z,27.10
2022-07-29T11:16:25.177Z,27.10
2022-07-29T11:19:14.582Z,27.30
2022-07-29T11:21:53.842Z,27.60
2022-07-29T11:24:35.518Z,27.60
2022-07-29T11:27:13.324Z,27.60
2022-07-29T11:30:03.343Z,27.10
2022-07-29T11:32:39.889Z,27.10
2022-07-29T11:38:28.693Z,26.90
2022-07-29T11:41:25.366Z,27.50
2022-07-29T11:43:54.685Z,27.90
2022-07-29T11:46:47.486Z,27.90
2022-07-29T11:49:19.518Z,27.50
2022-07-29T11:51:57.356Z,27.40
2022-07-29T11:54:27.915Z,27.70
2022-07-29T11:56:55.887Z,28.00
2022-07-29T11:59:23.335Z,27.90
2022-07-29T12:02:36.594Z,28.00
2022-07-29T12:04:55.258Z,27.90
2022-07-29T12:07:35.543Z,27.50
2022-07-29T12:10:02.809Z,27.40
2022-07-29T12:12:29.664Z,27.60
2022-07-29T12:14:56.464Z,27.50
2022-07-29T12:17:34.310Z,27.40
2022-07-29T12:20:04.818Z,27.30
2022-07-29T12:22:34.780Z,27.00
2022-07-29T12:25:32.194Z,27.20
2022-07-29T12:28:06.268Z,27.20
2022-07-29T12:41:11.824Z,27.30
2022-07-29T12:43:38.619Z,27.30
2022-07-29T12:46:16.032Z,27.30
2022-07-29T12:48:44.859Z,27.40
2022-07-29T12:51:15.162Z,27.30
2022-07-29T12:53:41.982Z,27.20
2022-07-29T12:56:40.543Z,27.20
2022-07-29T12:59:33.326Z,27.10
2022-07-29T13:02:01.258Z,26.90
2022-07-29T13:04:33.533Z,26.90
2022-07-29T13:07:08.147Z,27.00
2022-07-29T13:09:40.228Z,27.10
2022-07-29T13:12:08.653Z,27.00
2022-07-29T13:14:37.945Z,26.70
2022-07-29T13:17:13.096Z,26.90
2022-07-29T13:19:47.146Z,26.70
2022-07-29T13:22:19.835Z,26.90
2022-07-29T13:24:49.069Z,26.90
2022-07-29T13:27:17.487Z,27.00
2022-07-29T13:29:44.438Z,26.70
2022-07-29T13:32:13.130Z,26.60
2022-07-29T13:34:40.541Z,26.80
2022-07-29T13:37:07.289Z,27.00
2022-07-29T13:39:34.068Z,27.10
2022-07-29T13:42:01.526Z,27.60
2022-07-29T13:44:28.506Z,27.90
2022-07-29T13:46:55.266Z,27.90
2022-07-29T13:49:22.512Z,27.70
2022-07-29T13:51:52.432Z,28.20
2022-07-29T13:54:19.266Z,27.90
2022-07-29T13:56:46.731Z,27.80
2022-07-29T13:59:13.967Z,27.70
2022-07-29T14:01:43.138Z,27.80
2022-07-29T14:04:11.317Z,27.90
2022-07-29T14:09:22.285Z,28.00
2022-07-29T14:11:51.237Z,28.00
2022-07-29T14:14:18.307Z,27.90
2022-07-29T14:16:50.451Z,27.90
2022-07-29T14:19:18.734Z,27.90
2022-07-29T14:21:46.424Z,28.00
2022-07-29T14:24:18.062Z,28.20
2022-07-29T14:26:48.780Z,28.50
2022-07-29T14:29:15.707Z,28.20
2022-07-29T14:31:44.110Z,28.00
2022-07-29T14:34:10.882Z,28.10
2022-07-29T14:36:37.761Z,28.30
2022-07-29T14:39:05.123Z,28.60
2022-07-29T14:41:32.005Z,28.70
2022-07-29T14:44:01.516Z,28.40
2022-07-29T14:46:28.690Z,28.40
2022-07-29T14:48:55.651Z,28.80
2022-07-29T14:51:22.543Z,28.50
2022-07-29T14:53:49.558Z,27.80
2022-07-29T14:56:36.028Z,27.70
2022-07-29T14:59:03.210Z,27.60
2022-07-29T15:01:30.776Z,27.80
2022-07-29T15:03:59.816Z,27.60
2022-07-29T15:06:27.862Z,27.70
2022-07-29T15:08:54.989Z,27.80
2022-07-29T15:11:21.794Z,28.20
2022-07-29T15:13:48.549Z,28.50
2022-07-29T15:16:15.571Z,28.50
2022-07-29T15:18:42.571Z,28.60
2022-07-29T15:21:09.295Z,28.90
2022-07-29T15:23:37.312Z,28.60
2022-07-29T15:26:04.726Z,28.70
2022-07-29T15:28:31.570Z,28.60
2022-07-29T15:30:58.441Z,28.80
2022-07-29T15:33:26.287Z,28.70
2022-07-29T15:35:53.467Z,28.90
2022-07-29T15:38:20.483Z,28.90
2022-07-29T15:40:55.828Z,28.80
2022-07-29T15:43:23.065Z,28.70
2022-07-29T15:46:08.690Z,28.60
2022-07-29T15:48:39.162Z,28.50
2022-07-29T15:51:06.157Z,28.60
2022-07-29T15:53:33.848Z,28.50
2022-07-29T15:56:02.420Z,28.80
2022-07-29T15:58:29.290Z,28.70
2022-07-29T16:00:56.256Z,28.80
2022-07-29T16:03:23.141Z,28.90
2022-07-29T16:05:50.453Z,28.90
2022-07-29T16:08:17.217Z,28.70
2022-07-29T16:10:44.078Z,28.70
2022-07-29T16:13:10.900Z,28.60
2022-07-29T16:16:02.167Z,28.60
2022-07-29T16:18:35.928Z,28.10
2022-07-29T16:21:03.202Z,27.60
2022-07-29T16:23:30.490Z,27.60
2022-07-29T16:26:00.130Z,27.50
2022-07-29T16:28:37.816Z,27.30
2022-07-29T16:31:16.962Z,27.90
2022-07-29T16:33:53.551Z,28.90
2022-07-29T16:36:31.907Z,28.70
2022-07-29T16:38:59.717Z,28.50
2022-07-29T16:41:31.625Z,28.20
2022-07-29T16:43:59.006Z,28.00
2022-07-29T16:46:26.204Z,28.20
2022-07-29T16:49:01.317Z,28.40
2022-07-29T16:51:30.194Z,28.20
2022-07-29T16:53:56.986Z,28.30
2022-07-29T16:56:23.801Z,28.50
2022-07-29T16:58:50.582Z,28.50
2022-07-29T17:01:18.149Z,28.20
2022-07-29T17:19:22.516Z,28.00
2022-07-29T17:21:49.789Z,27.90
2022-07-29T17:24:16.675Z,27.80
2022-07-29T17:26:44.528Z,27.60
2022-07-29T17:29:11.756Z,27.50
2022-07-29T17:31:38.784Z,27.40
2022-07-29T17:34:06.855Z,27.40
2022-07-29T17:36:33.657Z,27.40
2022-07-29T17:39:08.834Z,27.40
2022-07-29T17:41:36.020Z,27.50
2022-07-29T17:44:05.103Z,27.30
2022-07-29T17:46:31.882Z,27.40
2022-07-29T17:48:59.183Z,27.20
2022-07-29T17:51:26.915Z,27.00
2022-07-29T17:53:53.965Z,26.80
2022-07-29T17:56:21.274Z,26.90
2022-07-29T18:01:29.057Z,26.70
2022-07-29T18:03:59.800Z,26.60
2022-07-29T18:06:30.207Z,26.50
2022-07-29T18:08:57.157Z,26.40
2022-07-29T18:11:23.965Z,26.40
2022-07-29T18:13:50.978Z,26.30
2022-07-29T18:16:22.052Z,26.30
2022-07-29T18:18:52.066Z,26.30
2022-07-29T18:21:38.092Z,26.30
2022-07-29T18:24:12.209Z,26.30
2022-07-29T18:26:39.021Z,26.40
2022-07-29T18:29:05.964Z,26.40
2022-07-29T18:31:36.151Z,26.20
2022-07-29T18:34:13.866Z,26.20
2022-07-29T18:36:41.034Z,26.10
2022-07-29T18:39:08.292Z,26.00
2022-07-29T18:41:35.815Z,26.00
2022-07-29T18:44:21.893Z,26.00
2022-07-29T18:46:53.210Z,26.00
2022-07-29T18:49:23.802Z,26.00
2022-07-29T18:52:06.227Z,25.80
2022-07-29T18:54:33.117Z,25.90
2022-07-29T18:57:53.304Z,25.80
2022-07-29T18:59:54.325Z,25.80
2022-07-29T19:02:22.577Z,25.70
2022-07-29T19:04:57.730Z,25.50
2022-07-29T19:07:28.348Z,25.40
2022-07-29T19:09:58.545Z,25.30
2022-07-29T19:12:36.020Z,25.30
2022-07-29T19:15:03.454Z,25.10
2022-07-29T19:17:30.443Z,25.00
2022-07-29T19:20:09.419Z,24.90
2022-07-29T19:22:39.580Z,24.80
2022-07-29T19:25:09.358Z,24.80
2022-07-29T19:27:36.363Z,24.70
2022-07-29T19:30:08.589Z,24.70
2022-07-29T19:32:39.256Z,24.70
2022-07-29T19:35:24.322Z,24.60
2022-07-29T19:37:55.661Z,24.60
2022-07-29T19:40:30.144Z,24.50
2022-07-29T19:42:57.409Z,24.30
2022-07-29T19:45:26.889Z,24.20
2022-07-29T19:48:01.060Z,24.10
2022-07-29T19:50:28.766Z,24.10
2022-07-29T19:52:55.853Z,23.90
2022-07-29T19:55:23.477Z,23.80
2022-07-29T19:57:51.011Z,23.70
2022-07-29T20:00:20.962Z,23.60
2022-07-29T20:02:48.217Z,23.60
2022-07-29T20:05:15.122Z,23.50
2022-07-29T20:07:42.027Z,23.40
2022-07-29T20:10:09.914Z,23.40
2022-07-29T20:12:38.201Z,23.30
2022-07-29T20:15:07.255Z,23.20
2022-07-29T20:17:39.712Z,23.00
2022-07-29T20:20:07.908Z,23.00
2022-07-29T20:22:38.399Z,22.90
2022-07-29T20:25:07.012Z,22.80
2022-07-29T20:27:36.810Z,22.80
2022-07-29T20:30:03.957Z,22.80
2022-07-29T20:32:30.605Z,22.70
2022-07-29T20:35:10.237Z,22.60
2022-07-29T20:37:51.427Z,22.60
2022-07-29T20:40:22.628Z,22.60
2022-07-29T20:42:49.360Z,22.60
2022-07-29T20:45:16.082Z,22.50
2022-07-29T20:47:42.760Z,22.40
2022-07-29T20:50:14.281Z,22.30
2022-07-29T20:52:45.513Z,22.30
2022-07-29T20:55:12.221Z,22.20
2022-07-29T20:57:39.971Z,22.30
2022-07-29T21:00:08.030Z,22.10
2022-07-29T21:02:34.812Z,22.00
2022-07-29T21:05:01.579Z,21.90
2022-07-29T21:07:28.285Z,21.80
2022-07-29T21:09:55.013Z,21.80
2022-07-29T21:12:22.344Z,21.70
2022-07-29T21:14:49.453Z,21.70
2022-07-29T21:17:19.327Z,21.60
2022-07-29T21:19:50.617Z,21.40
2022-07-29T21:22:18.782Z,21.40
2022-07-29T21:24:45.537Z,21.40
2022-07-29T21:27:30.616Z,21.40
2022-07-29T21:29:57.460Z,21.30
2022-07-29T21:32:27.524Z,21.30
2022-07-29T21:34:57.741Z,21.20
2022-07-29T21:37:24.484Z,21.20
2022-07-29T21:39:51.576Z,21.10
2022-07-29T21:42:18.565Z,21.00
2022-07-29T21:44:45.268Z,20.90
2022-07-29T21:47:12.041Z,20.60
2022-07-29T21:49:39.232Z,20.80
2022-07-29T21:52:08.896Z,20.80
2022-07-29T21:54:35.893Z,20.70
2022-07-29T21:57:03.204Z,20.80
2022-07-29T21:59:30.512Z,20.60
2022-07-29T22:02:00.905Z,20.50
2022-07-29T22:04:29.184Z,20.30
2022-07-29T22:06:56.023Z,20.20
2022-07-29T22:09:22.791Z,20.20
2022-07-29T22:11:49.518Z,20.00
2022-07-29T22:14:18.260Z,20.00
2022-07-29T22:16:46.160Z,19.70
2022-07-29T22:19:14.084Z,19.60
2022-07-29T22:21:41.860Z,19.50
2022-07-29T22:24:09.921Z,19.40
2022-07-29T22:26:36.862Z,19.30
2022-07-29T22:29:03.778Z,19.20
2022-07-29T22:31:30.574Z,19.10
2022-07-29T22:33:57.294Z,18.90
2022-07-29T22:36:24.983Z,18.90
2022-07-29T22:38:52.175Z,18.80
2022-07-29T22:41:18.981Z,18.70
2022-07-29T22:43:45.830Z,18.60
2022-07-29T22:46:12.661Z,18.60
2022-07-29T22:48:39.567Z,18.50
2022-07-29T22:51:06.380Z,18.50
2022-07-29T22:53:33.184Z,18.40
2022-07-29T22:55:59.921Z,18.30
2022-07-29T22:58:26.930Z,18.30
2022-07-29T23:00:53.960Z,18.30
2022-07-29T23:03:21.766Z,17.90
2022-07-29T23:05:49.183Z,18.20
2022-07-29T23:08:16.111Z,18.10
2022-07-29T23:10:42.879Z,18.00
2022-07-29T23:13:09.628Z,18.00
2022-07-29T23:15:36.534Z,18.00
2022-07-29T23:18:03.324Z,18.10
2022-07-29T23:20:30.232Z,17.90
2022-07-29T23:22:57.004Z,17.90
2022-07-29T23:25:23.794Z,17.80
2022-07-29T23:27:50.568Z,17.70
2022-07-29T23:30:17.291Z,17.60
2022-07-29T23:32:44.014Z,17.60
2022-07-29T23:35:10.793Z,17.70
2022-07-29T23:37:38.124Z,17.50
2022-07-29T23:40:07.844Z,17.50
2022-07-29T23:42:36.508Z,17.50
2022-07-29T23:45:04.032Z,17.40
2022-07-29T23:47:30.778Z,17.40
2022-07-29T23:49:57.630Z,17.60
2022-07-29T23:52:24.352Z,17.20
2022-07-29T23:54:51.093Z,17.30
2022-07-29T23:57:18.128Z,17.30
2022-07-29T23:59:44.842Z,17.20
